sensor_id;sensor_type;location;lat;lon;timestamp;P1;durP1;ratioP1;P2;durP2;ratioP2
44728;SDS011;30457;53.590;9.922;2023-07-31T00:00:50;1.95;;;0.88;;
44728;SDS011;30457;53.590;9.922;2023-07-31T00:05:16;4.20;;;0.70;;
44728;SDS011;30457;53.590;9.922;2023-07-31T00:09:41;3.70;;;1.45;;
44728;SDS011;30457;53.590;9.922;2023-07-31T00:14:07;4.97;;;1.17;;
44728;SDS011;30457;53.590;9.922;2023-07-31T00:18:32;1.77;;;0.85;;
44728;SDS011;30457;53.590;9.922;2023-07-31T00:22:58;7.35;;;1.95;;
44728;SDS011;30457;53.590;9.922;2023-07-31T00:27:23;2.03;;;1.10;;
44728;SDS011;30457;53.590;9.922;2023-07-31T00:31:49;4.30;;;1.10;;
44728;SDS011;30457;53.590;9.922;2023-07-31T00:36:16;4.13;;;1.08;;
44728;SDS011;30457;53.590;9.922;2023-07-31T00:40:43;4.25;;;0.93;;
44728;SDS011;30457;53.590;9.922;2023-07-31T00:45:08;5.68;;;1.10;;
44728;SDS011;30457;53.590;9.922;2023-07-31T00:49:34;7.05;;;1.38;;
44728;SDS011;30457;53.590;9.922;2023-07-31T00:54:00;3.38;;;0.98;;
44728;SDS011;30457;53.590;9.922;2023-07-31T00:58:26;5.90;;;1.27;;
44728;SDS011;30457;53.590;9.922;2023-07-31T01:02:52;3.10;;;0.90;;
44728;SDS011;30457;53.590;9.922;2023-07-31T01:07:20;6.85;;;1.50;;
44728;SDS011;30457;53.590;9.922;2023-07-31T01:11:53;2.15;;;1.08;;
44728;SDS011;30457;53.590;9.922;2023-07-31T01:16:21;2.53;;;1.17;;
44728;SDS011;30457;53.590;9.922;2023-07-31T01:20:49;5.03;;;1.30;;
44728;SDS011;30457;53.590;9.922;2023-07-31T01:25:26;3.15;;;1.50;;
44728;SDS011;30457;53.590;9.922;2023-07-31T01:30:16;4.55;;;1.80;;
44728;SDS011;30457;53.590;9.922;2023-07-31T01:34:47;5.07;;;1.40;;
44728;SDS011;30457;53.590;9.922;2023-07-31T01:39:13;4.03;;;1.15;;
44728;SDS011;30457;53.590;9.922;2023-07-31T01:43:40;4.30;;;1.42;;
44728;SDS011;30457;53.590;9.922;2023-07-31T01:48:06;2.92;;;1.30;;
44728;SDS011;30457;53.590;9.922;2023-07-31T01:52:31;2.65;;;1.30;;
44728;SDS011;30457;53.590;9.922;2023-07-31T01:56:57;9.73;;;2.55;;
44728;SDS011;30457;53.590;9.922;2023-07-31T02:01:22;4.72;;;1.27;;
44728;SDS011;30457;53.590;9.922;2023-07-31T02:05:49;2.42;;;0.95;;
44728;SDS011;30457;53.590;9.922;2023-07-31T02:10:14;2.53;;;1.33;;
44728;SDS011;30457;53.590;9.922;2023-07-31T02:14:40;1.35;;;1.15;;
44728;SDS011;30457;53.590;9.922;2023-07-31T02:19:06;4.55;;;1.60;;
44728;SDS011;30457;53.590;9.922;2023-07-31T02:23:31;5.57;;;1.92;;
44728;SDS011;30457;53.590;9.922;2023-07-31T02:27:57;4.38;;;1.30;;
44728;SDS011;30457;53.590;9.922;2023-07-31T02:32:22;4.15;;;1.52;;
44728;SDS011;30457;53.590;9.922;2023-07-31T02:36:48;3.88;;;2.15;;
44728;SDS011;30457;53.590;9.922;2023-07-31T02:41:14;2.55;;;1.52;;
44728;SDS011;30457;53.590;9.922;2023-07-31T02:45:39;4.53;;;1.42;;
44728;SDS011;30457;53.590;9.922;2023-07-31T02:50:05;4.78;;;1.50;;
44728;SDS011;30457;53.590;9.922;2023-07-31T02:54:31;2.72;;;1.40;;
44728;SDS011;30457;53.590;9.922;2023-07-31T02:58:57;3.25;;;1.50;;
44728;SDS011;30457;53.590;9.922;2023-07-31T03:03:22;6.28;;;1.98;;
44728;SDS011;30457;53.590;9.922;2023-07-31T03:07:48;3.15;;;1.15;;
44728;SDS011;30457;53.590;9.922;2023-07-31T03:12:13;4.45;;;1.67;;
44728;SDS011;30457;53.590;9.922;2023-07-31T03:16:39;4.07;;;1.20;;
44728;SDS011;30457;53.590;9.922;2023-07-31T03:21:05;4.82;;;1.27;;
44728;SDS011;30457;53.590;9.922;2023-07-31T03:25:30;5.00;;;1.48;;
44728;SDS011;30457;53.590;9.922;2023-07-31T03:29:56;3.45;;;1.30;;
44728;SDS011;30457;53.590;9.922;2023-07-31T03:34:21;6.53;;;1.67;;
44728;SDS011;30457;53.590;9.922;2023-07-31T03:38:47;2.33;;;1.10;;
44728;SDS011;30457;53.590;9.922;2023-07-31T03:43:13;5.47;;;1.30;;
44728;SDS011;30457;53.590;9.922;2023-07-31T03:47:38;4.65;;;1.33;;
44728;SDS011;30457;53.590;9.922;2023-07-31T03:52:04;1.77;;;1.20;;
44728;SDS011;30457;53.590;9.922;2023-07-31T03:56:30;1.63;;;1.40;;
44728;SDS011;30457;53.590;9.922;2023-07-31T04:00:55;2.13;;;1.30;;
44728;SDS011;30457;53.590;9.922;2023-07-31T04:05:21;2.42;;;1.40;;
44728;SDS011;30457;53.590;9.922;2023-07-31T04:09:46;3.38;;;1.40;;
44728;SDS011;30457;53.590;9.922;2023-07-31T04:14:12;2.55;;;1.20;;
44728;SDS011;30457;53.590;9.922;2023-07-31T04:18:37;2.00;;;1.08;;
44728;SDS011;30457;53.590;9.922;2023-07-31T04:23:03;1.20;;;0.88;;
44728;SDS011;30457;53.590;9.922;2023-07-31T04:27:29;4.28;;;1.20;;
44728;SDS011;30457;53.590;9.922;2023-07-31T04:31:54;1.88;;;1.02;;
44728;SDS011;30457;53.590;9.922;2023-07-31T04:36:20;2.08;;;1.25;;
44728;SDS011;30457;53.590;9.922;2023-07-31T04:40:45;3.20;;;1.30;;
44728;SDS011;30457;53.590;9.922;2023-07-31T04:45:11;2.15;;;1.27;;
44728;SDS011;30457;53.590;9.922;2023-07-31T04:49:36;2.03;;;1.10;;
44728;SDS011;30457;53.590;9.922;2023-07-31T04:54:02;1.15;;;1.05;;
44728;SDS011;30457;53.590;9.922;2023-07-31T04:58:27;3.22;;;1.30;;
44728;SDS011;30457;53.590;9.922;2023-07-31T05:02:53;1.42;;;1.00;;
44728;SDS011;30457;53.590;9.922;2023-07-31T05:07:19;1.35;;;0.98;;
44728;SDS011;30457;53.590;9.922;2023-07-31T05:11:44;0.82;;;0.82;;
44728;SDS011;30457;53.590;9.922;2023-07-31T05:16:10;0.93;;;0.70;;
44728;SDS011;30457;53.590;9.922;2023-07-31T05:20:36;1.30;;;0.90;;
44728;SDS011;30457;53.590;9.922;2023-07-31T05:25:01;1.08;;;0.98;;
44728;SDS011;30457;53.590;9.922;2023-07-31T05:29:27;1.45;;;1.10;;
44728;SDS011;30457;53.590;9.922;2023-07-31T05:33:52;1.60;;;1.00;;
44728;SDS011;30457;53.590;9.922;2023-07-31T05:38:18;1.05;;;0.85;;
44728;SDS011;30457;53.590;9.922;2023-07-31T05:42:44;1.00;;;0.65;;
44728;SDS011;30457;53.590;9.922;2023-07-31T05:47:09;1.67;;;0.85;;
44728;SDS011;30457;53.590;9.922;2023-07-31T05:51:35;1.23;;;0.80;;
44728;SDS011;30457;53.590;9.922;2023-07-31T05:56:00;1.55;;;0.90;;
44728;SDS011;30457;53.590;9.922;2023-07-31T06:00:26;0.80;;;0.80;;
44728;SDS011;30457;53.590;9.922;2023-07-31T06:04:52;12.65;;;1.40;;
44728;SDS011;30457;53.590;9.922;2023-07-31T06:09:18;1.10;;;1.00;;
44728;SDS011;30457;53.590;9.922;2023-07-31T06:13:45;1.33;;;1.15;;
44728;SDS011;30457;53.590;9.922;2023-07-31T06:18:12;1.70;;;1.05;;
44728;SDS011;30457;53.590;9.922;2023-07-31T06:22:38;0.90;;;0.90;;
44728;SDS011;30457;53.590;9.922;2023-07-31T06:27:04;1.00;;;0.90;;
44728;SDS011;30457;53.590;9.922;2023-07-31T06:31:30;1.25;;;1.15;;
44728;SDS011;30457;53.590;9.922;2023-07-31T06:35:56;1.20;;;1.10;;
44728;SDS011;30457;53.590;9.922;2023-07-31T06:40:22;1.15;;;1.05;;
44728;SDS011;30457;53.590;9.922;2023-07-31T06:44:47;1.08;;;0.98;;
44728;SDS011;30457;53.590;9.922;2023-07-31T06:49:13;0.77;;;0.77;;
44728;SDS011;30457;53.590;9.922;2023-07-31T06:53:40;1.75;;;1.00;;
44728;SDS011;30457;53.590;9.922;2023-07-31T06:58:06;1.48;;;1.38;;
44728;SDS011;30457;53.590;9.922;2023-07-31T07:02:31;0.80;;;0.80;;
44728;SDS011;30457;53.590;9.922;2023-07-31T07:06:57;1.27;;;0.98;;
44728;SDS011;30457;53.590;9.922;2023-07-31T07:11:23;1.02;;;0.88;;
44728;SDS011;30457;53.590;9.922;2023-07-31T07:15:48;0.80;;;0.80;;
44728;SDS011;30457;53.590;9.922;2023-07-31T07:20:14;1.00;;;0.80;;
44728;SDS011;30457;53.590;9.922;2023-07-31T07:24:40;0.80;;;0.80;;
44728;SDS011;30457;53.590;9.922;2023-07-31T07:29:06;0.93;;;0.50;;
44728;SDS011;30457;53.590;9.922;2023-07-31T07:33:32;0.70;;;0.70;;
44728;SDS011;30457;53.590;9.922;2023-07-31T07:37:58;2.10;;;1.83;;
44728;SDS011;30457;53.590;9.922;2023-07-31T07:42:24;3.72;;;2.80;;
44728;SDS011;30457;53.590;9.922;2023-07-31T07:46:49;1.20;;;0.90;;
44728;SDS011;30457;53.590;9.922;2023-07-31T07:51:15;1.55;;;1.10;;
44728;SDS011;30457;53.590;9.922;2023-07-31T07:55:41;1.02;;;0.95;;
44728;SDS011;30457;53.590;9.922;2023-07-31T08:00:07;1.30;;;1.20;;
44728;SDS011;30457;53.590;9.922;2023-07-31T08:04:44;1.17;;;1.08;;
44728;SDS011;30457;53.590;9.922;2023-07-31T08:09:09;2.58;;;1.17;;
44728;SDS011;30457;53.590;9.922;2023-07-31T08:13:35;0.82;;;0.75;;
44728;SDS011;30457;53.590;9.922;2023-07-31T08:18:01;0.90;;;0.77;;
44728;SDS011;30457;53.590;9.922;2023-07-31T08:22:27;0.73;;;0.73;;
44728;SDS011;30457;53.590;9.922;2023-07-31T08:26:52;0.80;;;0.80;;
44728;SDS011;30457;53.590;9.922;2023-07-31T08:31:18;1.00;;;1.00;;
44728;SDS011;30457;53.590;9.922;2023-07-31T08:35:44;0.95;;;0.90;;
44728;SDS011;30457;53.590;9.922;2023-07-31T08:40:09;0.73;;;0.73;;
44728;SDS011;30457;53.590;9.922;2023-07-31T08:44:36;1.05;;;1.00;;
44728;SDS011;30457;53.590;9.922;2023-07-31T08:49:04;1.00;;;0.75;;
44728;SDS011;30457;53.590;9.922;2023-07-31T08:53:31;1.45;;;1.27;;
44728;SDS011;30457;53.590;9.922;2023-07-31T08:57:56;1.63;;;1.08;;
44728;SDS011;30457;53.590;9.922;2023-07-31T09:02:23;2.67;;;1.85;;
44728;SDS011;30457;53.590;9.922;2023-07-31T09:06:54;1.25;;;1.08;;
44728;SDS011;30457;53.590;9.922;2023-07-31T09:11:25;0.88;;;0.60;;
44728;SDS011;30457;53.590;9.922;2023-07-31T09:15:51;0.60;;;0.60;;
44728;SDS011;30457;53.590;9.922;2023-07-31T09:24:44;1.30;;;1.02;;
44728;SDS011;30457;53.590;9.922;2023-07-31T09:29:18;0.50;;;0.50;;
44728;SDS011;30457;53.590;9.922;2023-07-31T09:33:54;2.67;;;0.77;;
44728;SDS011;30457;53.590;9.922;2023-07-31T09:38:21;1.33;;;0.60;;
44728;SDS011;30457;53.590;9.922;2023-07-31T09:42:47;1.88;;;0.50;;
44728;SDS011;30457;53.590;9.922;2023-07-31T09:47:23;1.55;;;1.33;;
44728;SDS011;30457;53.590;9.922;2023-07-31T09:51:49;0.47;;;0.40;;
44728;SDS011;30457;53.590;9.922;2023-07-31T09:56:14;1.25;;;0.60;;
44728;SDS011;30457;53.590;9.922;2023-07-31T10:00:40;1.33;;;0.63;;
44728;SDS011;30457;53.590;9.922;2023-07-31T10:05:06;2.72;;;1.38;;
44728;SDS011;30457;53.590;9.922;2023-07-31T10:09:32;0.40;;;0.40;;
44728;SDS011;30457;53.590;9.922;2023-07-31T10:13:59;1.13;;;0.60;;
44728;SDS011;30457;53.590;9.922;2023-07-31T10:18:26;0.55;;;0.50;;
44728;SDS011;30457;53.590;9.922;2023-07-31T10:22:54;0.43;;;0.40;;
44728;SDS011;30457;53.590;9.922;2023-07-31T10:27:21;0.73;;;0.43;;
44728;SDS011;30457;53.590;9.922;2023-07-31T10:31:46;0.60;;;0.40;;
44728;SDS011;30457;53.590;9.922;2023-07-31T10:36:22;2.38;;;0.38;;
44728;SDS011;30457;53.590;9.922;2023-07-31T10:40:48;0.73;;;0.50;;
44728;SDS011;30457;53.590;9.922;2023-07-31T10:45:25;1.52;;;0.50;;
44728;SDS011;30457;53.590;9.922;2023-07-31T10:50:16;0.95;;;0.60;;
44728;SDS011;30457;53.590;9.922;2023-07-31T10:54:46;0.75;;;0.50;;
44728;SDS011;30457;53.590;9.922;2023-07-31T10:59:13;0.60;;;0.40;;
44728;SDS011;30457;53.590;9.922;2023-07-31T11:03:43;1.02;;;0.57;;
44728;SDS011;30457;53.590;9.922;2023-07-31T11:08:13;2.15;;;0.70;;
44728;SDS011;30457;53.590;9.922;2023-07-31T11:12:44;1.63;;;0.50;;
44728;SDS011;30457;53.590;9.922;2023-07-31T11:17:10;2.15;;;0.80;;
44728;SDS011;30457;53.590;9.922;2023-07-31T11:21:36;1.33;;;0.45;;
44728;SDS011;30457;53.590;9.922;2023-07-31T11:26:01;0.60;;;0.57;;
44728;SDS011;30457;53.590;9.922;2023-07-31T11:30:27;1.50;;;0.60;;
44728;SDS011;30457;53.590;9.922;2023-07-31T11:34:53;2.10;;;0.88;;
44728;SDS011;30457;53.590;9.922;2023-07-31T11:39:19;0.35;;;0.35;;
44728;SDS011;30457;53.590;9.922;2023-07-31T11:43:45;0.45;;;0.40;;
44728;SDS011;30457;53.590;9.922;2023-07-31T11:48:45;1.30;;;0.30;;
44728;SDS011;30457;53.590;9.922;2023-07-31T11:53:06;0.57;;;0.57;;
44728;SDS011;30457;53.590;9.922;2023-07-31T11:57:34;0.40;;;0.40;;
44728;SDS011;30457;53.590;9.922;2023-07-31T12:01:59;0.50;;;0.50;;
44728;SDS011;30457;53.590;9.922;2023-07-31T12:06:32;1.15;;;0.52;;
44728;SDS011;30457;53.590;9.922;2023-07-31T12:11:03;0.47;;;0.40;;
44728;SDS011;30457;53.590;9.922;2023-07-31T12:19:58;1.17;;;0.30;;
44728;SDS011;30457;53.590;9.922;2023-07-31T12:24:25;0.50;;;0.40;;
44728;SDS011;30457;53.590;9.922;2023-07-31T12:28:54;0.20;;;0.20;;
44728;SDS011;30457;53.590;9.922;2023-07-31T12:33:19;1.65;;;0.45;;
44728;SDS011;30457;53.590;9.922;2023-07-31T12:37:45;0.35;;;0.35;;
44728;SDS011;30457;53.590;9.922;2023-07-31T12:42:10;0.63;;;0.40;;
44728;SDS011;30457;53.590;9.922;2023-07-31T12:46:36;1.92;;;0.30;;
44728;SDS011;30457;53.590;9.922;2023-07-31T12:51:02;1.30;;;0.45;;
44728;SDS011;30457;53.590;9.922;2023-07-31T12:55:28;0.28;;;0.20;;
44728;SDS011;30457;53.590;9.922;2023-07-31T12:59:53;0.75;;;0.45;;
44728;SDS011;30457;53.590;9.922;2023-07-31T13:04:19;0.32;;;0.25;;
44728;SDS011;30457;53.590;9.922;2023-07-31T13:08:44;0.30;;;0.30;;
44728;SDS011;30457;53.590;9.922;2023-07-31T13:13:10;0.50;;;0.50;;
44728;SDS011;30457;53.590;9.922;2023-07-31T13:17:36;0.98;;;0.50;;
44728;SDS011;30457;53.590;9.922;2023-07-31T13:22:02;0.52;;;0.52;;
44728;SDS011;30457;53.590;9.922;2023-07-31T13:26:29;0.50;;;0.50;;
44728;SDS011;30457;53.590;9.922;2023-07-31T13:30:54;0.93;;;0.50;;
44728;SDS011;30457;53.590;9.922;2023-07-31T13:35:20;0.47;;;0.40;;
44728;SDS011;30457;53.590;9.922;2023-07-31T13:39:45;1.08;;;0.40;;
44728;SDS011;30457;53.590;9.922;2023-07-31T13:44:11;0.93;;;0.45;;
44728;SDS011;30457;53.590;9.922;2023-07-31T13:48:36;1.85;;;0.60;;
44728;SDS011;30457;53.590;9.922;2023-07-31T13:53:02;0.95;;;0.50;;
44728;SDS011;30457;53.590;9.922;2023-07-31T13:57:27;0.60;;;0.60;;
44728;SDS011;30457;53.590;9.922;2023-07-31T14:01:53;0.52;;;0.52;;
44728;SDS011;30457;53.590;9.922;2023-07-31T14:06:19;0.50;;;0.47;;
44728;SDS011;30457;53.590;9.922;2023-07-31T14:10:44;0.80;;;0.60;;
44728;SDS011;30457;53.590;9.922;2023-07-31T14:15:10;1.05;;;0.70;;
44728;SDS011;30457;53.590;9.922;2023-07-31T14:19:36;0.68;;;0.60;;
44728;SDS011;30457;53.590;9.922;2023-07-31T14:24:01;1.98;;;1.70;;
44728;SDS011;30457;53.590;9.922;2023-07-31T14:28:27;0.75;;;0.70;;
44728;SDS011;30457;53.590;9.922;2023-07-31T14:32:52;2.90;;;0.90;;
44728;SDS011;30457;53.590;9.922;2023-07-31T14:37:18;1.08;;;0.70;;
44728;SDS011;30457;53.590;9.922;2023-07-31T14:41:44;0.60;;;0.47;;
44728;SDS011;30457;53.590;9.922;2023-07-31T14:46:10;0.93;;;0.40;;
44728;SDS011;30457;53.590;9.922;2023-07-31T14:50:35;0.47;;;0.40;;
44728;SDS011;30457;53.590;9.922;2023-07-31T14:55:01;4.32;;;0.47;;
44728;SDS011;30457;53.590;9.922;2023-07-31T14:59:26;2.92;;;0.38;;
44728;SDS011;30457;53.590;9.922;2023-07-31T15:03:52;0.75;;;0.50;;
44728;SDS011;30457;53.590;9.922;2023-07-31T15:08:17;3.97;;;0.65;;
44728;SDS011;30457;53.590;9.922;2023-07-31T15:12:44;0.88;;;0.85;;
44728;SDS011;30457;53.590;9.922;2023-07-31T15:17:09;2.05;;;0.55;;
44728;SDS011;30457;53.590;9.922;2023-07-31T15:21:35;0.70;;;0.43;;
44728;SDS011;30457;53.590;9.922;2023-07-31T15:26:01;0.55;;;0.40;;
44728;SDS011;30457;53.590;9.922;2023-07-31T15:30:27;0.60;;;0.50;;
44728;SDS011;30457;53.590;9.922;2023-07-31T15:34:54;0.60;;;0.50;;
44728;SDS011;30457;53.590;9.922;2023-07-31T15:39:19;0.50;;;0.40;;
44728;SDS011;30457;53.590;9.922;2023-07-31T15:43:45;0.75;;;0.75;;
44728;SDS011;30457;53.590;9.922;2023-07-31T15:48:24;1.15;;;0.70;;
44728;SDS011;30457;53.590;9.922;2023-07-31T15:57:29;0.55;;;0.55;;
44728;SDS011;30457;53.590;9.922;2023-07-31T16:01:55;0.80;;;0.65;;
44728;SDS011;30457;53.590;9.922;2023-07-31T16:06:23;0.70;;;0.70;;
44728;SDS011;30457;53.590;9.922;2023-07-31T16:10:58;1.38;;;0.70;;
44728;SDS011;30457;53.590;9.922;2023-07-31T16:15:27;0.68;;;0.60;;
44728;SDS011;30457;53.590;9.922;2023-07-31T16:20:01;0.60;;;0.60;;
44728;SDS011;30457;53.590;9.922;2023-07-31T16:24:39;0.52;;;0.52;;
44728;SDS011;30457;53.590;9.922;2023-07-31T16:29:05;0.73;;;0.70;;
44728;SDS011;30457;53.590;9.922;2023-07-31T16:33:30;0.50;;;0.50;;
44728;SDS011;30457;53.590;9.922;2023-07-31T16:38:05;0.43;;;0.43;;
44728;SDS011;30457;53.590;9.922;2023-07-31T16:43:00;0.70;;;0.57;;
44728;SDS011;30457;53.590;9.922;2023-07-31T16:47:54;1.80;;;0.77;;
44728;SDS011;30457;53.590;9.922;2023-07-31T16:52:25;0.65;;;0.65;;
44728;SDS011;30457;53.590;9.922;2023-07-31T16:56:52;0.63;;;0.57;;
44728;SDS011;30457;53.590;9.922;2023-07-31T17:01:18;1.70;;;0.63;;
44728;SDS011;30457;53.590;9.922;2023-07-31T17:05:43;0.88;;;0.88;;
44728;SDS011;30457;53.590;9.922;2023-07-31T17:10:09;0.55;;;0.55;;
44728;SDS011;30457;53.590;9.922;2023-07-31T17:14:34;0.70;;;0.70;;
44728;SDS011;30457;53.590;9.922;2023-07-31T17:19:00;0.50;;;0.50;;
44728;SDS011;30457;53.590;9.922;2023-07-31T17:23:29;2.15;;;1.33;;
44728;SDS011;30457;53.590;9.922;2023-07-31T17:27:55;4.20;;;1.13;;
44728;SDS011;30457;53.590;9.922;2023-07-31T17:32:23;1.63;;;1.20;;
44728;SDS011;30457;53.590;9.922;2023-07-31T17:36:49;1.10;;;1.00;;
44728;SDS011;30457;53.590;9.922;2023-07-31T17:41:15;1.35;;;0.90;;
44728;SDS011;30457;53.590;9.922;2023-07-31T17:45:43;0.80;;;0.77;;
44728;SDS011;30457;53.590;9.922;2023-07-31T17:50:09;1.20;;;0.93;;
44728;SDS011;30457;53.590;9.922;2023-07-31T17:55:00;0.75;;;0.75;;
44728;SDS011;30457;53.590;9.922;2023-07-31T17:59:29;1.48;;;1.00;;
44728;SDS011;30457;53.590;9.922;2023-07-31T18:09:38;1.05;;;0.98;;
44728;SDS011;30457;53.590;9.922;2023-07-31T18:14:04;1.50;;;1.40;;
44728;SDS011;30457;53.590;9.922;2023-07-31T18:18:33;1.40;;;1.30;;
44728;SDS011;30457;53.590;9.922;2023-07-31T18:23:08;1.60;;;1.48;;
44728;SDS011;30457;53.590;9.922;2023-07-31T18:27:37;1.27;;;1.17;;
44728;SDS011;30457;53.590;9.922;2023-07-31T18:32:03;2.30;;;1.27;;
44728;SDS011;30457;53.590;9.922;2023-07-31T18:36:59;1.25;;;1.15;;
44728;SDS011;30457;53.590;9.922;2023-07-31T18:41:25;2.33;;;1.50;;
44728;SDS011;30457;53.590;9.922;2023-07-31T18:45:51;2.25;;;1.60;;
44728;SDS011;30457;53.590;9.922;2023-07-31T18:50:16;1.70;;;1.60;;
44728;SDS011;30457;53.590;9.922;2023-07-31T18:54:53;2.42;;;1.50;;
44728;SDS011;30457;53.590;9.922;2023-07-31T18:59:29;1.52;;;1.42;;
44728;SDS011;30457;53.590;9.922;2023-07-31T19:03:55;2.60;;;1.88;;
44728;SDS011;30457;53.590;9.922;2023-07-31T19:08:31;3.20;;;2.00;;
44728;SDS011;30457;53.590;9.922;2023-07-31T19:13:19;12.83;;;3.43;;
44728;SDS011;30457;53.590;9.922;2023-07-31T19:18:03;2.88;;;1.70;;
44728;SDS011;30457;53.590;9.922;2023-07-31T19:22:29;2.33;;;2.10;;
44728;SDS011;30457;53.590;9.922;2023-07-31T19:27:10;2.95;;;2.33;;
44728;SDS011;30457;53.590;9.922;2023-07-31T19:32:02;2.53;;;2.33;;
44728;SDS011;30457;53.590;9.922;2023-07-31T19:36:30;2.75;;;2.10;;
44728;SDS011;30457;53.590;9.922;2023-07-31T19:40:59;2.40;;;2.20;;
44728;SDS011;30457;53.590;9.922;2023-07-31T19:45:28;3.80;;;2.72;;
44728;SDS011;30457;53.590;9.922;2023-07-31T19:49:55;4.22;;;2.53;;
44728;SDS011;30457;53.590;9.922;2023-07-31T19:54:21;3.30;;;2.42;;
44728;SDS011;30457;53.590;9.922;2023-07-31T19:58:47;4.80;;;2.50;;
44728;SDS011;30457;53.590;9.922;2023-07-31T20:03:12;2.80;;;2.17;;
44728;SDS011;30457;53.590;9.922;2023-07-31T20:07:38;3.05;;;2.47;;
44728;SDS011;30457;53.590;9.922;2023-07-31T20:12:04;3.30;;;3.00;;
44728;SDS011;30457;53.590;9.922;2023-07-31T20:17:18;2.67;;;2.17;;
44728;SDS011;30457;53.590;9.922;2023-07-31T20:21:43;3.50;;;2.30;;
44728;SDS011;30457;53.590;9.922;2023-07-31T20:26:09;3.05;;;2.35;;
44728;SDS011;30457;53.590;9.922;2023-07-31T20:30:35;2.85;;;2.38;;
44728;SDS011;30457;53.590;9.922;2023-07-31T20:35:07;2.40;;;2.10;;
44728;SDS011;30457;53.590;9.922;2023-07-31T20:39:40;2.70;;;2.00;;
44728;SDS011;30457;53.590;9.922;2023-07-31T20:44:05;2.10;;;1.90;;
44728;SDS011;30457;53.590;9.922;2023-07-31T20:48:31;2.30;;;2.10;;
44728;SDS011;30457;53.590;9.922;2023-07-31T20:52:56;2.70;;;2.30;;
44728;SDS011;30457;53.590;9.922;2023-07-31T20:57:23;1.80;;;1.70;;
44728;SDS011;30457;53.590;9.922;2023-07-31T21:01:49;2.08;;;1.85;;
44728;SDS011;30457;53.590;9.922;2023-07-31T21:06:14;3.08;;;1.65;;
44728;SDS011;30457;53.590;9.922;2023-07-31T21:10:41;2.13;;;1.35;;
44728;SDS011;30457;53.590;9.922;2023-07-31T21:15:08;1.20;;;1.10;;
44728;SDS011;30457;53.590;9.922;2023-07-31T21:19:34;2.47;;;1.33;;
44728;SDS011;30457;53.590;9.922;2023-07-31T21:24:00;0.98;;;0.98;;
44728;SDS011;30457;53.590;9.922;2023-07-31T21:28:25;5.85;;;1.10;;
44728;SDS011;30457;53.590;9.922;2023-07-31T21:32:51;1.05;;;1.02;;
44728;SDS011;30457;53.590;9.922;2023-07-31T21:37:16;0.80;;;0.80;;
44728;SDS011;30457;53.590;9.922;2023-07-31T21:41:42;1.05;;;0.95;;
44728;SDS011;30457;53.590;9.922;2023-07-31T21:46:08;0.70;;;0.70;;
44728;SDS011;30457;53.590;9.922;2023-07-31T21:50:33;1.05;;;0.70;;
44728;SDS011;30457;53.590;9.922;2023-07-31T21:54:59;1.42;;;0.93;;
44728;SDS011;30457;53.590;9.922;2023-07-31T21:59:24;0.52;;;0.52;;
44728;SDS011;30457;53.590;9.922;2023-07-31T22:03:50;1.15;;;0.80;;
44728;SDS011;30457;53.590;9.922;2023-07-31T22:08:15;1.85;;;1.10;;
44728;SDS011;30457;53.590;9.922;2023-07-31T22:12:41;0.70;;;0.70;;
44728;SDS011;30457;53.590;9.922;2023-07-31T22:17:06;1.35;;;0.70;;
44728;SDS011;30457;53.590;9.922;2023-07-31T22:21:32;0.88;;;0.68;;
44728;SDS011;30457;53.590;9.922;2023-07-31T22:25:57;0.80;;;0.80;;
44728;SDS011;30457;53.590;9.922;2023-07-31T22:30:23;0.50;;;0.50;;
44728;SDS011;30457;53.590;9.922;2023-07-31T22:34:48;0.93;;;0.60;;
44728;SDS011;30457;53.590;9.922;2023-07-31T22:39:14;0.55;;;0.40;;
44728;SDS011;30457;53.590;9.922;2023-07-31T22:43:40;0.60;;;0.50;;
44728;SDS011;30457;53.590;9.922;2023-07-31T22:48:06;0.85;;;0.50;;
44728;SDS011;30457;53.590;9.922;2023-07-31T22:52:31;0.68;;;0.35;;
44728;SDS011;30457;53.590;9.922;2023-07-31T22:56:57;0.40;;;0.40;;
44728;SDS011;30457;53.590;9.922;2023-07-31T23:01:22;0.40;;;0.40;;
44728;SDS011;30457;53.590;9.922;2023-07-31T23:05:49;2.50;;;2.10;;
44728;SDS011;30457;53.590;9.922;2023-07-31T23:10:15;1.15;;;1.00;;
44728;SDS011;30457;53.590;9.922;2023-07-31T23:14:40;3.88;;;1.10;;
44728;SDS011;30457;53.590;9.922;2023-07-31T23:19:06;1.92;;;1.10;;
44728;SDS011;30457;53.590;9.922;2023-07-31T23:23:31;1.65;;;1.10;;
44728;SDS011;30457;53.590;9.922;2023-07-31T23:27:57;1.60;;;1.13;;
44728;SDS011;30457;53.590;9.922;2023-07-31T23:32:23;1.90;;;1.20;;
44728;SDS011;30457;53.590;9.922;2023-07-31T23:36:48;1.20;;;1.00;;
44728;SDS011;30457;53.590;9.922;2023-07-31T23:41:14;1.30;;;1.20;;
44728;SDS011;30457;53.590;9.922;2023-07-31T23:45:41;1.85;;;1.40;;
44728;SDS011;30457;53.590;9.922;2023-07-31T23:50:07;1.58;;;1.48;;
44728;SDS011;30457;53.590;9.922;2023-07-31T23:54:34;2.28;;;1.60;;
44728;SDS011;30457;53.590;9.922;2023-07-31T23:58:59;1.80;;;1.42;;
